sensor_id;sensor_type;location;lat;lon;timestamp;P1;durP1;ratioP1;P2;durP2;ratioP2
49502;SDS011;35409;48.776;9.204;2022-08-14T00:00:38;3.45;;;2.88;;
49502;SDS011;35409;48.776;9.204;2022-08-14T00:03:04;2.65;;;2.42;;
49502;SDS011;35409;48.776;9.204;2022-08-14T00:05:29;3.95;;;2.67;;
49502;SDS011;35409;48.776;9.204;2022-08-14T00:07:55;2.92;;;2.63;;
49502;SDS011;35409;48.776;9.204;2022-08-14T00:10:21;4.63;;;2.80;;
49502;SDS011;35409;48.776;9.204;2022-08-14T00:12:51;3.38;;;2.47;;
49502;SDS011;35409;48.776;9.204;2022-08-14T00:15:21;2.35;;;2.15;;
49502;SDS011;35409;48.776;9.204;2022-08-14T00:17:50;2.33;;;2.13;;
49502;SDS011;35409;48.776;9.204;2022-08-14T00:20:17;2.83;;;2.20;;
49502;SDS011;35409;48.776;9.204;2022-08-14T00:22:45;3.20;;;2.17;;
49502;SDS011;35409;48.776;9.204;2022-08-14T00:25:11;2.47;;;2.28;;
49502;SDS011;35409;48.776;9.204;2022-08-14T00:27:37;2.63;;;2.33;;
49502;SDS011;35409;48.776;9.204;2022-08-14T00:30:04;4.10;;;2.10;;
49502;SDS011;35409;48.776;9.204;2022-08-14T00:32:33;3.13;;;2.83;;
49502;SDS011;35409;48.776;9.204;2022-08-14T00:34:59;1.90;;;1.80;;
49502;SDS011;35409;48.776;9.204;2022-08-14T00:37:26;2.30;;;2.17;;
49502;SDS011;35409;48.776;9.204;2022-08-14T00:39:55;2.63;;;1.98;;
49502;SDS011;35409;48.776;9.204;2022-08-14T00:42:21;3.13;;;2.20;;
49502;SDS011;35409;48.776;9.204;2022-08-14T00:44:48;2.42;;;2.15;;
49502;SDS011;35409;48.776;9.204;2022-08-14T00:47:15;3.65;;;2.35;;
49502;SDS011;35409;48.776;9.204;2022-08-14T00:49:42;2.58;;;1.95;;
49502;SDS011;35409;48.776;9.204;2022-08-14T00:52:12;4.57;;;2.20;;
49502;SDS011;35409;48.776;9.204;2022-08-14T00:54:40;2.88;;;2.22;;
49502;SDS011;35409;48.776;9.204;2022-08-14T00:57:07;2.40;;;2.20;;
49502;SDS011;35409;48.776;9.204;2022-08-14T00:59:33;2.28;;;1.90;;
49502;SDS011;35409;48.776;9.204;2022-08-14T01:01:59;3.47;;;2.25;;
49502;SDS011;35409;48.776;9.204;2022-08-14T01:04:26;2.00;;;1.90;;
49502;SDS011;35409;48.776;9.204;2022-08-14T01:06:56;3.28;;;2.72;;
49502;SDS011;35409;48.776;9.204;2022-08-14T01:09:22;2.45;;;2.00;;
49502;SDS011;35409;48.776;9.204;2022-08-14T01:11:49;2.88;;;2.17;;
49502;SDS011;35409;48.776;9.204;2022-08-14T01:14:15;2.30;;;2.20;;
49502;SDS011;35409;48.776;9.204;2022-08-14T01:16:42;2.72;;;2.40;;
49502;SDS011;35409;48.776;9.204;2022-08-14T01:19:08;2.22;;;1.90;;
49502;SDS011;35409;48.776;9.204;2022-08-14T01:21:52;2.45;;;2.20;;
49502;SDS011;35409;48.776;9.204;2022-08-14T01:24:17;2.65;;;2.38;;
49502;SDS011;35409;48.776;9.204;2022-08-14T01:26:45;2.78;;;2.10;;
49502;SDS011;35409;48.776;9.204;2022-08-14T01:29:11;2.08;;;1.98;;
49502;SDS011;35409;48.776;9.204;2022-08-14T01:31:37;2.08;;;1.88;;
49502;SDS011;35409;48.776;9.204;2022-08-14T01:34:18;4.97;;;2.10;;
49502;SDS011;35409;48.776;9.204;2022-08-14T01:36:47;2.33;;;2.13;;
49502;SDS011;35409;48.776;9.204;2022-08-14T01:39:15;3.03;;;2.03;;
49502;SDS011;35409;48.776;9.204;2022-08-14T01:41:43;2.92;;;2.55;;
49502;SDS011;35409;48.776;9.204;2022-08-14T01:44:16;3.33;;;2.35;;
49502;SDS011;35409;48.776;9.204;2022-08-14T01:46:43;3.25;;;2.20;;
49502;SDS011;35409;48.776;9.204;2022-08-14T01:49:10;2.53;;;2.33;;
49502;SDS011;35409;48.776;9.204;2022-08-14T01:51:39;2.10;;;2.00;;
49502;SDS011;35409;48.776;9.204;2022-08-14T01:54:10;3.50;;;2.20;;
49502;SDS011;35409;48.776;9.204;2022-08-14T01:56:37;2.63;;;2.30;;
49502;SDS011;35409;48.776;9.204;2022-08-14T01:59:08;2.25;;;2.05;;
49502;SDS011;35409;48.776;9.204;2022-08-14T02:01:44;3.05;;;2.28;;
49502;SDS011;35409;48.776;9.204;2022-08-14T02:04:11;3.28;;;2.40;;
49502;SDS011;35409;48.776;9.204;2022-08-14T02:06:37;2.47;;;2.28;;
49502;SDS011;35409;48.776;9.204;2022-08-14T02:09:06;2.58;;;2.38;;
49502;SDS011;35409;48.776;9.204;2022-08-14T02:11:33;4.68;;;2.75;;
49502;SDS011;35409;48.776;9.204;2022-08-14T02:14:09;2.80;;;2.45;;
49502;SDS011;35409;48.776;9.204;2022-08-14T02:16:38;3.17;;;2.60;;
49502;SDS011;35409;48.776;9.204;2022-08-14T02:19:10;2.92;;;2.63;;
49502;SDS011;35409;48.776;9.204;2022-08-14T02:21:38;2.47;;;2.20;;
49502;SDS011;35409;48.776;9.204;2022-08-14T02:24:05;3.40;;;2.55;;
49502;SDS011;35409;48.776;9.204;2022-08-14T02:26:35;2.75;;;2.30;;
49502;SDS011;35409;48.776;9.204;2022-08-14T02:29:07;2.35;;;2.15;;
49502;SDS011;35409;48.776;9.204;2022-08-14T02:31:39;2.45;;;2.17;;
49502;SDS011;35409;48.776;9.204;2022-08-14T02:36:46;3.67;;;2.40;;
49502;SDS011;35409;48.776;9.204;2022-08-14T02:39:15;2.55;;;2.00;;
49502;SDS011;35409;48.776;9.204;2022-08-14T02:41:41;2.40;;;2.17;;
49502;SDS011;35409;48.776;9.204;2022-08-14T02:44:08;2.83;;;2.30;;
49502;SDS011;35409;48.776;9.204;2022-08-14T02:46:37;3.20;;;2.22;;
49502;SDS011;35409;48.776;9.204;2022-08-14T02:49:08;2.30;;;2.10;;
49502;SDS011;35409;48.776;9.204;2022-08-14T02:51:35;3.45;;;2.50;;
49502;SDS011;35409;48.776;9.204;2022-08-14T02:54:01;2.38;;;2.17;;
49502;SDS011;35409;48.776;9.204;2022-08-14T02:56:28;2.50;;;2.30;;
49502;SDS011;35409;48.776;9.204;2022-08-14T02:58:55;2.20;;;2.10;;
49502;SDS011;35409;48.776;9.204;2022-08-14T03:01:22;2.72;;;2.50;;
49502;SDS011;35409;48.776;9.204;2022-08-14T03:03:49;3.33;;;2.45;;
49502;SDS011;35409;48.776;9.204;2022-08-14T03:06:16;2.63;;;2.42;;
49502;SDS011;35409;48.776;9.204;2022-08-14T03:08:50;2.55;;;2.17;;
49502;SDS011;35409;48.776;9.204;2022-08-14T03:11:17;3.92;;;2.45;;
49502;SDS011;35409;48.776;9.204;2022-08-14T03:13:47;2.75;;;2.50;;
49502;SDS011;35409;48.776;9.204;2022-08-14T03:16:16;2.63;;;2.33;;
49502;SDS011;35409;48.776;9.204;2022-08-14T03:18:46;3.17;;;2.40;;
49502;SDS011;35409;48.776;9.204;2022-08-14T03:21:15;2.60;;;2.40;;
49502;SDS011;35409;48.776;9.204;2022-08-14T03:23:44;2.65;;;2.38;;
49502;SDS011;35409;48.776;9.204;2022-08-14T03:26:11;2.20;;;2.00;;
49502;SDS011;35409;48.776;9.204;2022-08-14T03:28:44;1.95;;;1.85;;
49502;SDS011;35409;48.776;9.204;2022-08-14T03:31:14;3.05;;;2.75;;
49502;SDS011;35409;48.776;9.204;2022-08-14T03:33:40;2.50;;;2.30;;
49502;SDS011;35409;48.776;9.204;2022-08-14T03:36:08;3.38;;;2.08;;
49502;SDS011;35409;48.776;9.204;2022-08-14T03:38:39;3.03;;;2.28;;
49502;SDS011;35409;48.776;9.204;2022-08-14T03:41:09;2.58;;;2.30;;
49502;SDS011;35409;48.776;9.204;2022-08-14T03:43:47;2.30;;;2.10;;
49502;SDS011;35409;48.776;9.204;2022-08-14T03:46:14;2.83;;;2.60;;
49502;SDS011;35409;48.776;9.204;2022-08-14T03:48:41;2.50;;;2.30;;
49502;SDS011;35409;48.776;9.204;2022-08-14T03:51:08;2.78;;;2.30;;
49502;SDS011;35409;48.776;9.204;2022-08-14T03:53:37;2.53;;;2.33;;
49502;SDS011;35409;48.776;9.204;2022-08-14T03:56:06;3.85;;;3.00;;
49502;SDS011;35409;48.776;9.204;2022-08-14T03:58:38;2.35;;;2.15;;
49502;SDS011;35409;48.776;9.204;2022-08-14T04:01:09;2.70;;;2.50;;
49502;SDS011;35409;48.776;9.204;2022-08-14T04:03:36;5.85;;;2.38;;
49502;SDS011;35409;48.776;9.204;2022-08-14T04:06:03;3.42;;;2.28;;
49502;SDS011;35409;48.776;9.204;2022-08-14T04:08:33;2.53;;;2.25;;
49502;SDS011;35409;48.776;9.204;2022-08-14T04:10:59;6.60;;;2.40;;
49502;SDS011;35409;48.776;9.204;2022-08-14T04:13:26;4.00;;;2.75;;
49502;SDS011;35409;48.776;9.204;2022-08-14T04:15:51;2.45;;;2.25;;
49502;SDS011;35409;48.776;9.204;2022-08-14T04:18:17;2.67;;;2.22;;
49502;SDS011;35409;48.776;9.204;2022-08-14T04:20:43;3.13;;;2.40;;
49502;SDS011;35409;48.776;9.204;2022-08-14T04:23:08;2.38;;;2.17;;
49502;SDS011;35409;48.776;9.204;2022-08-14T04:25:35;3.15;;;2.50;;
49502;SDS011;35409;48.776;9.204;2022-08-14T04:28:04;2.83;;;2.35;;
49502;SDS011;35409;48.776;9.204;2022-08-14T04:30:31;2.60;;;2.40;;
49502;SDS011;35409;48.776;9.204;2022-08-14T04:33:03;3.05;;;2.65;;
49502;SDS011;35409;48.776;9.204;2022-08-14T04:35:32;2.60;;;2.40;;
49502;SDS011;35409;48.776;9.204;2022-08-14T04:37:58;4.63;;;2.30;;
49502;SDS011;35409;48.776;9.204;2022-08-14T04:40:42;3.40;;;2.33;;
49502;SDS011;35409;48.776;9.204;2022-08-14T04:43:26;3.30;;;2.72;;
49502;SDS011;35409;48.776;9.204;2022-08-14T04:46:02;2.25;;;2.05;;
49502;SDS011;35409;48.776;9.204;2022-08-14T04:48:29;3.25;;;2.72;;
49502;SDS011;35409;48.776;9.204;2022-08-14T04:50:55;2.28;;;2.08;;
49502;SDS011;35409;48.776;9.204;2022-08-14T04:53:22;4.15;;;2.60;;
49502;SDS011;35409;48.776;9.204;2022-08-14T04:55:49;3.22;;;2.85;;
49502;SDS011;35409;48.776;9.204;2022-08-14T04:58:33;2.65;;;2.30;;
49502;SDS011;35409;48.776;9.204;2022-08-14T05:01:00;3.25;;;2.03;;
49502;SDS011;35409;48.776;9.204;2022-08-14T05:03:28;2.75;;;2.25;;
49502;SDS011;35409;48.776;9.204;2022-08-14T05:05:58;2.40;;;2.20;;
49502;SDS011;35409;48.776;9.204;2022-08-14T05:08:26;2.85;;;2.60;;
49502;SDS011;35409;48.776;9.204;2022-08-14T05:10:57;2.95;;;2.47;;
49502;SDS011;35409;48.776;9.204;2022-08-14T05:13:26;5.68;;;2.30;;
49502;SDS011;35409;48.776;9.204;2022-08-14T05:15:53;2.47;;;2.28;;
49502;SDS011;35409;48.776;9.204;2022-08-14T05:18:23;2.78;;;2.58;;
49502;SDS011;35409;48.776;9.204;2022-08-14T05:20:52;3.22;;;2.92;;
49502;SDS011;35409;48.776;9.204;2022-08-14T05:23:22;2.67;;;2.47;;
49502;SDS011;35409;48.776;9.204;2022-08-14T05:25:50;6.63;;;2.95;;
49502;SDS011;35409;48.776;9.204;2022-08-14T05:28:20;4.68;;;3.03;;
49502;SDS011;35409;48.776;9.204;2022-08-14T05:30:48;3.00;;;2.70;;
49502;SDS011;35409;48.776;9.204;2022-08-14T05:33:16;5.40;;;2.90;;
49502;SDS011;35409;48.776;9.204;2022-08-14T05:35:43;4.35;;;3.03;;
49502;SDS011;35409;48.776;9.204;2022-08-14T05:38:11;5.78;;;3.47;;
49502;SDS011;35409;48.776;9.204;2022-08-14T05:40:39;5.93;;;3.63;;
49502;SDS011;35409;48.776;9.204;2022-08-14T05:43:05;6.82;;;4.40;;
49502;SDS011;35409;48.776;9.204;2022-08-14T05:45:31;5.45;;;3.80;;
49502;SDS011;35409;48.776;9.204;2022-08-14T05:47:59;5.60;;;4.13;;
49502;SDS011;35409;48.776;9.204;2022-08-14T05:50:25;3.67;;;3.38;;
49502;SDS011;35409;48.776;9.204;2022-08-14T05:52:51;4.10;;;3.47;;
49502;SDS011;35409;48.776;9.204;2022-08-14T05:55:17;4.28;;;3.58;;
49502;SDS011;35409;48.776;9.204;2022-08-14T05:57:45;16.60;;;4.07;;
49502;SDS011;35409;48.776;9.204;2022-08-14T06:00:19;4.82;;;3.58;;
49502;SDS011;35409;48.776;9.204;2022-08-14T06:02:50;5.45;;;4.00;;
49502;SDS011;35409;48.776;9.204;2022-08-14T06:05:16;5.95;;;3.55;;
49502;SDS011;35409;48.776;9.204;2022-08-14T06:07:42;5.95;;;3.67;;
49502;SDS011;35409;48.776;9.204;2022-08-14T06:10:08;5.30;;;3.67;;
49502;SDS011;35409;48.776;9.204;2022-08-14T06:12:35;5.78;;;3.58;;
49502;SDS011;35409;48.776;9.204;2022-08-14T06:15:01;4.55;;;3.40;;
49502;SDS011;35409;48.776;9.204;2022-08-14T06:17:28;3.80;;;3.35;;
49502;SDS011;35409;48.776;9.204;2022-08-14T06:19:53;4.72;;;3.45;;
49502;SDS011;35409;48.776;9.204;2022-08-14T06:22:19;5.72;;;3.55;;
49502;SDS011;35409;48.776;9.204;2022-08-14T06:24:45;4.53;;;3.15;;
49502;SDS011;35409;48.776;9.204;2022-08-14T06:27:10;6.82;;;3.28;;
49502;SDS011;35409;48.776;9.204;2022-08-14T06:29:37;9.50;;;3.47;;
49502;SDS011;35409;48.776;9.204;2022-08-14T06:32:03;4.53;;;4.00;;
49502;SDS011;35409;48.776;9.204;2022-08-14T06:34:29;4.65;;;3.65;;
49502;SDS011;35409;48.776;9.204;2022-08-14T06:36:55;3.97;;;3.08;;
49502;SDS011;35409;48.776;9.204;2022-08-14T06:39:21;5.30;;;3.80;;
49502;SDS011;35409;48.776;9.204;2022-08-14T06:41:47;6.28;;;3.40;;
49502;SDS011;35409;48.776;9.204;2022-08-14T06:44:13;3.53;;;3.22;;
49502;SDS011;35409;48.776;9.204;2022-08-14T06:46:39;3.35;;;2.78;;
49502;SDS011;35409;48.776;9.204;2022-08-14T06:49:04;8.75;;;3.22;;
49502;SDS011;35409;48.776;9.204;2022-08-14T06:51:30;5.10;;;3.72;;
49502;SDS011;35409;48.776;9.204;2022-08-14T06:53:57;4.10;;;3.35;;
49502;SDS011;35409;48.776;9.204;2022-08-14T06:56:22;5.80;;;3.70;;
49502;SDS011;35409;48.776;9.204;2022-08-14T06:58:48;4.60;;;3.65;;
49502;SDS011;35409;48.776;9.204;2022-08-14T07:01:14;4.05;;;3.65;;
49502;SDS011;35409;48.776;9.204;2022-08-14T07:03:58;3.83;;;3.20;;
49502;SDS011;35409;48.776;9.204;2022-08-14T07:06:42;3.97;;;3.28;;
49502;SDS011;35409;48.776;9.204;2022-08-14T07:09:08;4.75;;;3.42;;
49502;SDS011;35409;48.776;9.204;2022-08-14T07:11:35;3.50;;;3.00;;
49502;SDS011;35409;48.776;9.204;2022-08-14T07:14:01;4.00;;;3.58;;
49502;SDS011;35409;48.776;9.204;2022-08-14T07:16:27;6.00;;;3.40;;
49502;SDS011;35409;48.776;9.204;2022-08-14T07:18:53;3.13;;;2.83;;
49502;SDS011;35409;48.776;9.204;2022-08-14T07:21:18;6.60;;;2.88;;
49502;SDS011;35409;48.776;9.204;2022-08-14T07:23:44;3.47;;;2.58;;
49502;SDS011;35409;48.776;9.204;2022-08-14T07:26:10;3.53;;;2.72;;
49502;SDS011;35409;48.776;9.204;2022-08-14T07:28:37;7.65;;;2.65;;
49502;SDS011;35409;48.776;9.204;2022-08-14T07:31:04;3.97;;;2.65;;
49502;SDS011;35409;48.776;9.204;2022-08-14T07:33:34;2.50;;;2.30;;
49502;SDS011;35409;48.776;9.204;2022-08-14T07:36:04;3.05;;;2.22;;
49502;SDS011;35409;48.776;9.204;2022-08-14T07:38:31;3.65;;;2.50;;
49502;SDS011;35409;48.776;9.204;2022-08-14T07:40:57;2.03;;;1.88;;
49502;SDS011;35409;48.776;9.204;2022-08-14T07:43:23;2.25;;;2.10;;
49502;SDS011;35409;48.776;9.204;2022-08-14T07:45:50;2.75;;;2.00;;
49502;SDS011;35409;48.776;9.204;2022-08-14T07:48:16;2.90;;;2.25;;
49502;SDS011;35409;48.776;9.204;2022-08-14T07:50:41;1.75;;;1.65;;
49502;SDS011;35409;48.776;9.204;2022-08-14T07:53:07;2.35;;;2.08;;
49502;SDS011;35409;48.776;9.204;2022-08-14T07:55:33;4.75;;;1.88;;
49502;SDS011;35409;48.776;9.204;2022-08-14T07:57:59;3.80;;;2.10;;
49502;SDS011;35409;48.776;9.204;2022-08-14T08:00:25;2.20;;;2.00;;
49502;SDS011;35409;48.776;9.204;2022-08-14T08:02:53;2.60;;;2.35;;
49502;SDS011;35409;48.776;9.204;2022-08-14T08:05:21;3.65;;;2.10;;
49502;SDS011;35409;48.776;9.204;2022-08-14T08:07:51;3.15;;;2.40;;
49502;SDS011;35409;48.776;9.204;2022-08-14T08:10:21;3.97;;;2.40;;
49502;SDS011;35409;48.776;9.204;2022-08-14T08:13:01;4.05;;;2.72;;
49502;SDS011;35409;48.776;9.204;2022-08-14T08:15:34;3.03;;;2.38;;
49502;SDS011;35409;48.776;9.204;2022-08-14T08:18:02;2.20;;;2.00;;
49502;SDS011;35409;48.776;9.204;2022-08-14T08:20:30;3.45;;;2.42;;
49502;SDS011;35409;48.776;9.204;2022-08-14T08:25:27;2.53;;;2.33;;
49502;SDS011;35409;48.776;9.204;2022-08-14T08:30:24;3.10;;;2.45;;
49502;SDS011;35409;48.776;9.204;2022-08-14T08:32:52;2.17;;;2.08;;
49502;SDS011;35409;48.776;9.204;2022-08-14T08:35:19;2.10;;;2.00;;
49502;SDS011;35409;48.776;9.204;2022-08-14T08:37:50;4.07;;;2.22;;
49502;SDS011;35409;48.776;9.204;2022-08-14T08:40:21;3.58;;;2.40;;
49502;SDS011;35409;48.776;9.204;2022-08-14T08:43:00;2.55;;;2.30;;
49502;SDS011;35409;48.776;9.204;2022-08-14T08:45:28;4.57;;;2.20;;
49502;SDS011;35409;48.776;9.204;2022-08-14T08:47:53;2.80;;;2.28;;
49502;SDS011;35409;48.776;9.204;2022-08-14T08:50:23;2.28;;;2.08;;
49502;SDS011;35409;48.776;9.204;2022-08-14T08:52:54;2.65;;;2.45;;
49502;SDS011;35409;48.776;9.204;2022-08-14T08:57:56;4.10;;;2.00;;
49502;SDS011;35409;48.776;9.204;2022-08-14T09:00:23;10.38;;;2.42;;
49502;SDS011;35409;48.776;9.204;2022-08-14T09:02:53;2.17;;;1.90;;
49502;SDS011;35409;48.776;9.204;2022-08-14T09:05:21;2.28;;;2.17;;
49502;SDS011;35409;48.776;9.204;2022-08-14T09:07:48;4.43;;;1.83;;
49502;SDS011;35409;48.776;9.204;2022-08-14T09:10:13;2.90;;;2.63;;
49502;SDS011;35409;48.776;9.204;2022-08-14T09:12:39;3.35;;;2.42;;
49502;SDS011;35409;48.776;9.204;2022-08-14T09:15:05;4.32;;;2.30;;
49502;SDS011;35409;48.776;9.204;2022-08-14T09:17:33;2.30;;;2.10;;
49502;SDS011;35409;48.776;9.204;2022-08-14T09:20:00;2.15;;;1.88;;
49502;SDS011;35409;48.776;9.204;2022-08-14T09:22:26;2.63;;;2.35;;
49502;SDS011;35409;48.776;9.204;2022-08-14T09:24:52;5.55;;;2.53;;
49502;SDS011;35409;48.776;9.204;2022-08-14T09:27:19;3.65;;;2.03;;
49502;SDS011;35409;48.776;9.204;2022-08-14T09:29:45;3.70;;;2.70;;
49502;SDS011;35409;48.776;9.204;2022-08-14T09:32:11;5.18;;;2.45;;
49502;SDS011;35409;48.776;9.204;2022-08-14T09:34:55;2.80;;;2.60;;
49502;SDS011;35409;48.776;9.204;2022-08-14T09:45:42;2.90;;;2.70;;
49502;SDS011;35409;48.776;9.204;2022-08-14T09:48:18;5.00;;;2.65;;
49502;SDS011;35409;48.776;9.204;2022-08-14T09:50:47;5.72;;;2.50;;
49502;SDS011;35409;48.776;9.204;2022-08-14T09:53:32;2.63;;;2.42;;
49502;SDS011;35409;48.776;9.204;2022-08-14T09:56:01;3.17;;;2.63;;
49502;SDS011;35409;48.776;9.204;2022-08-14T09:58:41;6.00;;;1.98;;
49502;SDS011;35409;48.776;9.204;2022-08-14T10:03:37;4.25;;;2.28;;
49502;SDS011;35409;48.776;9.204;2022-08-14T10:06:13;2.35;;;2.15;;
49502;SDS011;35409;48.776;9.204;2022-08-14T10:08:50;2.38;;;2.28;;
49502;SDS011;35409;48.776;9.204;2022-08-14T10:11:29;2.45;;;2.30;;
49502;SDS011;35409;48.776;9.204;2022-08-14T10:14:10;4.40;;;2.75;;
49502;SDS011;35409;48.776;9.204;2022-08-14T10:16:40;2.22;;;2.13;;
49502;SDS011;35409;48.776;9.204;2022-08-14T10:19:09;3.70;;;2.58;;
49502;SDS011;35409;48.776;9.204;2022-08-14T10:21:37;2.42;;;2.33;;
49502;SDS011;35409;48.776;9.204;2022-08-14T10:24:05;3.40;;;2.78;;
49502;SDS011;35409;48.776;9.204;2022-08-14T10:26:34;2.20;;;2.10;;
49502;SDS011;35409;48.776;9.204;2022-08-14T10:29:07;4.97;;;2.50;;
49502;SDS011;35409;48.776;9.204;2022-08-14T10:31:36;3.10;;;2.72;;
49502;SDS011;35409;48.776;9.204;2022-08-14T10:36:36;2.70;;;2.45;;
49502;SDS011;35409;48.776;9.204;2022-08-14T10:39:13;3.45;;;2.88;;
49502;SDS011;35409;48.776;9.204;2022-08-14T10:41:42;2.80;;;2.60;;
49502;SDS011;35409;48.776;9.204;2022-08-14T10:44:12;3.10;;;2.90;;
49502;SDS011;35409;48.776;9.204;2022-08-14T10:49:17;2.80;;;2.60;;
49502;SDS011;35409;48.776;9.204;2022-08-14T10:54:49;3.72;;;2.35;;
49502;SDS011;35409;48.776;9.204;2022-08-14T10:59:50;3.97;;;2.63;;
49502;SDS011;35409;48.776;9.204;2022-08-14T11:02:33;4.20;;;2.50;;
49502;SDS011;35409;48.776;9.204;2022-08-14T11:07:37;3.25;;;2.50;;
49502;SDS011;35409;48.776;9.204;2022-08-14T11:10:08;3.03;;;2.72;;
49502;SDS011;35409;48.776;9.204;2022-08-14T11:12:46;3.33;;;3.00;;
49502;SDS011;35409;48.776;9.204;2022-08-14T11:15:17;3.15;;;2.75;;
49502;SDS011;35409;48.776;9.204;2022-08-14T11:17:44;4.18;;;2.90;;
49502;SDS011;35409;48.776;9.204;2022-08-14T11:20:11;2.78;;;2.58;;
49502;SDS011;35409;48.776;9.204;2022-08-14T11:22:39;2.88;;;2.67;;
49502;SDS011;35409;48.776;9.204;2022-08-14T11:25:09;3.40;;;3.10;;
49502;SDS011;35409;48.776;9.204;2022-08-14T11:27:38;2.90;;;2.70;;
49502;SDS011;35409;48.776;9.204;2022-08-14T11:30:07;4.97;;;2.70;;
49502;SDS011;35409;48.776;9.204;2022-08-14T11:32:38;6.07;;;2.70;;
49502;SDS011;35409;48.776;9.204;2022-08-14T11:35:10;3.10;;;2.80;;
49502;SDS011;35409;48.776;9.204;2022-08-14T11:37:47;3.08;;;2.78;;
49502;SDS011;35409;48.776;9.204;2022-08-14T11:40:17;5.55;;;2.80;;
49502;SDS011;35409;48.776;9.204;2022-08-14T11:42:44;3.45;;;3.15;;
49502;SDS011;35409;48.776;9.204;2022-08-14T11:45:11;2.88;;;2.60;;
49502;SDS011;35409;48.776;9.204;2022-08-14T11:47:38;3.67;;;3.17;;
49502;SDS011;35409;48.776;9.204;2022-08-14T11:50:11;4.47;;;2.58;;
49502;SDS011;35409;48.776;9.204;2022-08-14T11:52:42;2.80;;;2.60;;
49502;SDS011;35409;48.776;9.204;2022-08-14T11:55:10;3.20;;;2.90;;
49502;SDS011;35409;48.776;9.204;2022-08-14T11:57:38;3.28;;;3.05;;
49502;SDS011;35409;48.776;9.204;2022-08-14T12:00:10;4.78;;;2.88;;
49502;SDS011;35409;48.776;9.204;2022-08-14T12:02:47;4.30;;;2.60;;
49502;SDS011;35409;48.776;9.204;2022-08-14T12:05:15;3.00;;;2.70;;
49502;SDS011;35409;48.776;9.204;2022-08-14T12:07:48;5.30;;;2.58;;
49502;SDS011;35409;48.776;9.204;2022-08-14T12:10:15;3.55;;;2.13;;
49502;SDS011;35409;48.776;9.204;2022-08-14T12:12:42;3.30;;;2.42;;
49502;SDS011;35409;48.776;9.204;2022-08-14T12:15:08;3.15;;;2.95;;
49502;SDS011;35409;48.776;9.204;2022-08-14T12:17:46;4.03;;;3.03;;
49502;SDS011;35409;48.776;9.204;2022-08-14T12:20:17;4.22;;;2.53;;
49502;SDS011;35409;48.776;9.204;2022-08-14T12:22:43;2.95;;;2.63;;
49502;SDS011;35409;48.776;9.204;2022-08-14T12:25:17;4.00;;;2.80;;
49502;SDS011;35409;48.776;9.204;2022-08-14T12:27:45;2.67;;;2.47;;
49502;SDS011;35409;48.776;9.204;2022-08-14T12:33:01;2.58;;;2.38;;
49502;SDS011;35409;48.776;9.204;2022-08-14T12:35:39;2.50;;;2.30;;
49502;SDS011;35409;48.776;9.204;2022-08-14T12:38:07;6.45;;;2.63;;
49502;SDS011;35409;48.776;9.204;2022-08-14T12:40:44;2.40;;;2.20;;
49502;SDS011;35409;48.776;9.204;2022-08-14T12:43:17;2.65;;;2.45;;
49502;SDS011;35409;48.776;9.204;2022-08-14T12:45:48;3.00;;;2.17;;
49502;SDS011;35409;48.776;9.204;2022-08-14T12:48:16;2.75;;;2.42;;
49502;SDS011;35409;48.776;9.204;2022-08-14T12:50:43;2.70;;;2.30;;
49502;SDS011;35409;48.776;9.204;2022-08-14T12:53:10;3.53;;;2.17;;
49502;SDS011;35409;48.776;9.204;2022-08-14T12:55:39;4.30;;;2.78;;
49502;SDS011;35409;48.776;9.204;2022-08-14T12:58:07;3.42;;;2.65;;
49502;SDS011;35409;48.776;9.204;2022-08-14T13:00:35;2.65;;;2.28;;
49502;SDS011;35409;48.776;9.204;2022-08-14T13:03:03;2.58;;;2.38;;
49502;SDS011;35409;48.776;9.204;2022-08-14T13:05:33;2.10;;;2.00;;
49502;SDS011;35409;48.776;9.204;2022-08-14T13:07:59;3.47;;;2.20;;
49502;SDS011;35409;48.776;9.204;2022-08-14T13:12:56;2.10;;;2.00;;
49502;SDS011;35409;48.776;9.204;2022-08-14T13:15:23;3.92;;;2.10;;
49502;SDS011;35409;48.776;9.204;2022-08-14T13:17:50;2.22;;;1.92;;
49502;SDS011;35409;48.776;9.204;2022-08-14T13:20:20;3.67;;;2.00;;
49502;SDS011;35409;48.776;9.204;2022-08-14T13:22:47;2.17;;;2.08;;
49502;SDS011;35409;48.776;9.204;2022-08-14T13:25:14;2.97;;;2.08;;
49502;SDS011;35409;48.776;9.204;2022-08-14T13:27:45;1.77;;;1.67;;
49502;SDS011;35409;48.776;9.204;2022-08-14T13:30:12;2.22;;;2.00;;
49502;SDS011;35409;48.776;9.204;2022-08-14T13:32:39;2.35;;;2.20;;
49502;SDS011;35409;48.776;9.204;2022-08-14T13:35:08;2.10;;;1.90;;
49502;SDS011;35409;48.776;9.204;2022-08-14T13:37:35;2.85;;;1.83;;
49502;SDS011;35409;48.776;9.204;2022-08-14T13:40:01;5.68;;;2.20;;
49502;SDS011;35409;48.776;9.204;2022-08-14T13:42:28;2.50;;;2.40;;
49502;SDS011;35409;48.776;9.204;2022-08-14T13:44:54;2.97;;;2.00;;
49502;SDS011;35409;48.776;9.204;2022-08-14T13:47:22;2.13;;;2.03;;
49502;SDS011;35409;48.776;9.204;2022-08-14T13:49:49;2.90;;;1.80;;
49502;SDS011;35409;48.776;9.204;2022-08-14T13:52:17;2.75;;;2.00;;
49502;SDS011;35409;48.776;9.204;2022-08-14T13:54:45;5.22;;;2.03;;
49502;SDS011;35409;48.776;9.204;2022-08-14T13:57:15;1.92;;;1.83;;
49502;SDS011;35409;48.776;9.204;2022-08-14T13:59:42;1.90;;;1.80;;
49502;SDS011;35409;48.776;9.204;2022-08-14T14:02:11;2.15;;;1.80;;
49502;SDS011;35409;48.776;9.204;2022-08-14T14:04:40;2.80;;;1.70;;
49502;SDS011;35409;48.776;9.204;2022-08-14T14:07:08;3.40;;;1.80;;
49502;SDS011;35409;48.776;9.204;2022-08-14T14:09:37;1.40;;;1.30;;
49502;SDS011;35409;48.776;9.204;2022-08-14T14:12:05;2.17;;;1.98;;
49502;SDS011;35409;48.776;9.204;2022-08-14T14:14:32;2.03;;;1.83;;
49502;SDS011;35409;48.776;9.204;2022-08-14T14:17:01;1.90;;;1.80;;
49502;SDS011;35409;48.776;9.204;2022-08-14T14:19:31;2.35;;;2.22;;
49502;SDS011;35409;48.776;9.204;2022-08-14T14:22:00;2.55;;;2.10;;
49502;SDS011;35409;48.776;9.204;2022-08-14T14:24:30;8.45;;;3.72;;
49502;SDS011;35409;48.776;9.204;2022-08-14T14:27:00;2.80;;;2.33;;
49502;SDS011;35409;48.776;9.204;2022-08-14T14:29:31;1.75;;;1.65;;
49502;SDS011;35409;48.776;9.204;2022-08-14T14:34:24;2.13;;;1.85;;
49502;SDS011;35409;48.776;9.204;2022-08-14T14:36:51;3.15;;;2.17;;
49502;SDS011;35409;48.776;9.204;2022-08-14T14:39:22;2.78;;;2.03;;
49502;SDS011;35409;48.776;9.204;2022-08-14T14:41:52;2.22;;;1.65;;
49502;SDS011;35409;48.776;9.204;2022-08-14T14:44:23;1.73;;;1.63;;
49502;SDS011;35409;48.776;9.204;2022-08-14T14:46:50;2.50;;;1.80;;
49502;SDS011;35409;48.776;9.204;2022-08-14T14:49:17;1.92;;;1.80;;
49502;SDS011;35409;48.776;9.204;2022-08-14T14:51:44;1.73;;;1.63;;
49502;SDS011;35409;48.776;9.204;2022-08-14T14:54:11;2.13;;;1.80;;
49502;SDS011;35409;48.776;9.204;2022-08-14T14:56:40;2.92;;;1.90;;
49502;SDS011;35409;48.776;9.204;2022-08-14T14:59:07;7.93;;;3.40;;
49502;SDS011;35409;48.776;9.204;2022-08-14T15:01:35;2.30;;;2.20;;
49502;SDS011;35409;48.776;9.204;2022-08-14T15:04:04;3.63;;;1.80;;
49502;SDS011;35409;48.776;9.204;2022-08-14T15:06:32;1.88;;;1.77;;
49502;SDS011;35409;48.776;9.204;2022-08-14T15:08:59;1.90;;;1.80;;
49502;SDS011;35409;48.776;9.204;2022-08-14T15:11:26;2.08;;;1.95;;
49502;SDS011;35409;48.776;9.204;2022-08-14T15:13:52;2.17;;;2.08;;
49502;SDS011;35409;48.776;9.204;2022-08-14T15:16:18;2.90;;;1.65;;
49502;SDS011;35409;48.776;9.204;2022-08-14T15:18:44;2.45;;;2.25;;
49502;SDS011;35409;48.776;9.204;2022-08-14T15:21:10;2.78;;;1.70;;
49502;SDS011;35409;48.776;9.204;2022-08-14T15:23:37;1.83;;;1.73;;
49502;SDS011;35409;48.776;9.204;2022-08-14T15:26:07;3.38;;;2.03;;
49502;SDS011;35409;48.776;9.204;2022-08-14T15:28:32;2.03;;;1.80;;
49502;SDS011;35409;48.776;9.204;2022-08-14T15:31:00;2.03;;;1.75;;
49502;SDS011;35409;48.776;9.204;2022-08-14T15:33:28;2.63;;;2.53;;
49502;SDS011;35409;48.776;9.204;2022-08-14T15:36:12;3.03;;;2.30;;
49502;SDS011;35409;48.776;9.204;2022-08-14T15:38:38;2.10;;;2.00;;